Time;durP1;ratioP1;P1;durP2;ratioP2;P2;SDS_P1;SDS_P2;PMS_P1;PMS_P2;Temp;Humidity;BMP_temperature;BMP_pressure;BME280_temperature;BME280_humidity;BME280_pressure;Samples;Min_cycle;Max_cycle;Signal;HPM_P1;HPM_P2
2023/07/30 00:00:38;;;;;;;20.58;7.85;;;14.90;99.90;;;;;;5014420;28;20230;-63
2023/07/30 00:03:03;;;;;;;23.17;7.45;;;14.90;99.90;;;;;;5014602;28;20307;-63
2023/07/30 00:05:29;;;;;;;18.50;6.78;;;14.80;99.90;;;;;;5012723;28;20048;-63
2023/07/30 00:07:55;;;;;;;19.23;7.43;;;14.80;99.90;;;;;;5013384;28;20547;-63
2023/07/30 00:10:20;;;;;;;22.02;7.88;;;15.00;99.90;;;;;;5009035;28;20049;-63
2023/07/30 00:12:46;;;;;;;20.48;7.35;;;14.80;99.90;;;;;;5013955;28;20527;-63
2023/07/30 00:15:12;;;;;;;20.77;7.53;;;15.00;99.90;;;;;;5012074;28;20264;-64
2023/07/30 00:17:39;;;;;;;21.70;8.25;;;14.90;99.90;;;;;;5014619;28;20360;-64
2023/07/30 00:20:06;;;;;;;23.38;7.90;;;15.00;99.90;;;;;;4996769;28;20226;-64
2023/07/30 00:22:32;;;;;;;25.50;7.88;;;15.00;99.90;;;;;;5026247;28;20194;-64
2023/07/30 00:24:58;;;;;;;19.95;8.02;;;14.80;99.90;;;;;;5013625;28;20048;-64
2023/07/30 00:27:23;;;;;;;22.17;8.77;;;15.00;99.90;;;;;;5011583;28;20073;-64
2023/07/30 00:29:50;;;;;;;23.70;8.23;;;15.00;99.90;;;;;;5017399;28;20705;-64
2023/07/30 00:32:16;;;;;;;25.13;8.85;;;14.90;99.90;;;;;;5001179;28;20075;-63
2023/07/30 00:34:43;;;;;;;24.40;8.98;;;14.90;99.90;;;;;;5015733;28;20096;-63
2023/07/30 00:37:09;;;;;;;29.00;8.60;;;14.70;99.90;;;;;;5001081;28;20034;-63
2023/07/30 00:39:35;;;;;;;23.48;8.15;;;15.00;99.90;;;;;;5017977;28;20396;-63
2023/07/30 00:42:00;;;;;;;20.52;8.27;;;15.00;99.90;;;;;;5015385;28;20140;-64
2023/07/30 00:44:26;;;;;;;22.05;8.70;;;14.90;99.90;;;;;;5013226;28;20087;-64
2023/07/30 00:46:52;;;;;;;29.70;9.35;;;14.70;99.90;;;;;;5017831;28;20475;-65
2023/07/30 00:49:18;;;;;;;25.52;9.60;;;14.70;99.90;;;;;;5018672;28;20495;-64
2023/07/30 00:51:44;;;;;;;26.80;8.73;;;14.70;99.90;;;;;;5018721;28;20041;-64
2023/07/30 00:54:12;;;;;;;27.42;9.38;;;14.70;99.90;;;;;;5017894;28;20388;-63
2023/07/30 00:56:46;;;;;;;25.13;8.50;;;14.70;99.90;;;;;;5020216;28;20465;-64
2023/07/30 00:59:11;;;;;;;30.35;9.52;;;14.80;99.90;;;;;;5015610;28;20399;-63
2023/07/30 01:01:41;;;;;;;28.75;9.05;;;14.70;99.90;;;;;;5014794;28;20044;-64
2023/07/30 01:04:07;;;;;;;21.40;8.35;;;14.80;99.90;;;;;;5016637;28;20052;-63
2023/07/30 01:06:33;;;;;;;28.95;9.32;;;14.80;99.90;;;;;;4998962;28;20048;-64
2023/07/30 01:08:59;;;;;;;22.00;8.77;;;14.50;99.90;;;;;;4998297;28;20045;-64
2023/07/30 01:11:24;;;;;;;27.38;9.18;;;14.50;99.90;;;;;;5015482;28;20033;-64
2023/07/30 01:13:50;;;;;;;28.92;9.20;;;14.70;99.90;;;;;;5018454;28;20705;-64
2023/07/30 01:16:16;;;;;;;29.10;9.13;;;14.50;99.90;;;;;;5014251;28;20025;-65
2023/07/30 01:18:42;;;;;;;27.25;8.93;;;14.50;99.90;;;;;;5017680;28;20512;-63
2023/07/30 01:21:08;;;;;;;25.52;8.77;;;14.40;99.90;;;;;;5016198;28;20037;-64
2023/07/30 01:23:34;;;;;;;24.58;9.20;;;14.40;99.90;;;;;;5016793;28;20392;-64
2023/07/30 01:26:06;;;;;;;24.70;8.82;;;14.60;99.90;;;;;;5016282;28;20067;-64
2023/07/30 01:28:38;;;;;;;30.77;9.98;;;14.70;99.90;;;;;;5015957;28;20659;-64
2023/07/30 01:31:06;;;;;;;33.22;9.75;;;14.60;99.90;;;;;;4998663;28;20045;-65
2023/07/30 01:33:32;;;;;;;27.70;9.75;;;14.60;99.90;;;;;;5015726;28;20258;-64
2023/07/30 01:35:58;;;;;;;31.48;9.95;;;14.50;99.90;;;;;;5018060;28;20034;-63
2023/07/30 01:38:26;;;;;;;30.95;9.38;;;14.60;99.90;;;;;;5014243;28;20269;-63
2023/07/30 01:40:52;;;;;;;22.23;8.48;;;14.70;99.90;;;;;;5009886;28;20511;-63
2023/07/30 01:43:18;;;;;;;30.02;9.77;;;14.50;99.90;;;;;;4981807;28;20329;-64
2023/07/30 01:45:43;;;;;;;30.23;9.13;;;14.40;99.90;;;;;;5001809;28;20299;-63
2023/07/30 01:48:09;;;;;;;29.63;10.30;;;14.70;99.90;;;;;;5016963;28;20213;-64
2023/07/30 01:50:34;;;;;;;31.45;10.98;;;14.50;99.90;;;;;;5015666;28;20033;-64
2023/07/30 01:53:00;;;;;;;31.27;9.45;;;14.50;99.90;;;;;;5014713;28;20099;-65
2023/07/30 01:55:26;;;;;;;33.03;10.38;;;14.70;99.90;;;;;;5013799;28;20305;-65
2023/07/30 01:57:51;;;;;;;31.67;8.75;;;14.80;99.90;;;;;;5010770;28;20064;-64
2023/07/30 02:00:17;;;;;;;34.65;9.68;;;14.90;99.90;;;;;;5022866;28;20037;-62
2023/07/30 02:02:43;;;;;;;24.77;9.02;;;14.60;99.90;;;;;;5013752;28;20543;-64
2023/07/30 02:05:08;;;;;;;30.63;9.70;;;14.70;99.90;;;;;;4981639;28;20148;-64
2023/07/30 02:07:34;;;;;;;28.30;8.38;;;14.70;99.90;;;;;;5015059;28;20043;-63
2023/07/30 02:10:00;;;;;;;21.95;7.90;;;14.70;99.90;;;;;;5015338;28;20069;-63
2023/07/30 02:12:25;;;;;;;26.27;8.07;;;15.00;99.90;;;;;;5013512;28;20053;-64
2023/07/30 02:14:51;;;;;;;29.50;8.85;;;15.10;99.90;;;;;;4981012;28;20045;-64
2023/07/30 02:17:17;;;;;;;28.52;8.45;;;14.80;99.90;;;;;;4997836;28;20284;-64
2023/07/30 02:19:42;;;;;;;22.77;7.63;;;14.90;99.90;;;;;;5014114;28;20041;-64
2023/07/30 02:22:08;;;;;;;28.63;8.48;;;15.20;99.90;;;;;;5017837;28;20140;-64
2023/07/30 02:24:34;;;;;;;25.38;8.55;;;15.20;99.90;;;;;;5013255;28;20264;-63
2023/07/30 02:26:59;;;;;;;27.42;8.73;;;15.30;99.90;;;;;;5013821;28;20033;-64
2023/07/30 02:29:25;;;;;;;27.05;8.10;;;15.30;99.90;;;;;;5014502;28;20173;-64
2023/07/30 02:31:52;;;;;;;29.45;8.05;;;15.10;99.90;;;;;;5015967;28;20120;-64
2023/07/30 02:34:17;;;;;;;23.60;7.38;;;15.20;99.90;;;;;;4998326;28;20041;-64
2023/07/30 02:36:43;;;;;;;31.05;8.13;;;15.40;99.90;;;;;;5013334;28;20072;-64
2023/07/30 02:39:09;;;;;;;31.08;8.07;;;15.20;99.90;;;;;;5012921;28;20037;-64
2023/07/30 02:41:34;;;;;;;25.95;7.53;;;15.50;99.90;;;;;;4999854;28;20648;-65
2023/07/30 02:44:00;;;;;;;27.92;7.38;;;15.40;99.90;;;;;;5012643;28;20045;-64
2023/07/30 02:46:25;;;;;;;23.70;7.13;;;15.40;99.90;;;;;;5013921;28;20652;-63
2023/07/30 02:48:52;;;;;;;27.55;7.90;;;15.30;99.90;;;;;;4998188;28;20103;-64
2023/07/30 02:51:18;;;;;;;28.08;8.15;;;15.50;99.90;;;;;;4996205;28;20037;-63
2023/07/30 02:53:44;;;;;;;24.48;7.07;;;15.60;99.90;;;;;;5014287;28;20041;-64
2023/07/30 02:56:10;;;;;;;30.42;7.55;;;15.60;99.90;;;;;;5016948;28;20095;-64
2023/07/30 02:58:35;;;;;;;27.63;7.65;;;15.70;99.90;;;;;;4995919;28;20069;-63
2023/07/30 03:01:07;;;;;;;28.17;6.97;;;15.60;99.90;;;;;;5013851;28;20060;-63
2023/07/30 03:03:34;;;;;;;29.88;7.32;;;15.80;99.90;;;;;;5014900;28;20466;-64
2023/07/30 03:05:59;;;;;;;30.23;6.70;;;15.50;99.90;;;;;;5012290;28;20049;-63
2023/07/30 03:08:25;;;;;;;26.38;6.63;;;15.60;99.90;;;;;;5016184;28;20194;-63
2023/07/30 03:10:50;;;;;;;29.45;6.25;;;15.60;99.90;;;;;;5014381;28;20045;-64
2023/07/30 03:13:16;;;;;;;28.58;6.88;;;15.50;99.90;;;;;;5012659;28;20466;-64
2023/07/30 03:15:42;;;;;;;26.08;6.43;;;15.80;99.90;;;;;;5015425;28;20041;-64
2023/07/30 03:18:07;;;;;;;28.25;6.97;;;15.90;99.90;;;;;;4996855;28;20102;-64
2023/07/30 03:20:33;;;;;;;26.05;5.95;;;15.80;99.90;;;;;;5012702;28;20080;-64
2023/07/30 03:22:59;;;;;;;23.90;5.63;;;15.70;99.90;;;;;;5012677;28;20037;-65
2023/07/30 03:25:24;;;;;;;23.45;5.80;;;15.70;99.90;;;;;;5015465;28;20130;-64
2023/07/30 03:27:50;;;;;;;31.00;6.20;;;15.60;99.90;;;;;;4994200;28;20317;-64
2023/07/30 03:30:16;;;;;;;24.10;6.18;;;15.60;99.90;;;;;;5014846;28;20522;-64
2023/07/30 03:32:41;;;;;;;27.48;5.75;;;15.90;99.90;;;;;;5014165;28;20157;-64
2023/07/30 03:35:07;;;;;;;30.77;6.80;;;15.90;99.90;;;;;;5012965;28;20219;-64
2023/07/30 03:37:33;;;;;;;28.67;6.70;;;15.80;99.90;;;;;;5012114;28;20127;-64
2023/07/30 03:39:59;;;;;;;26.83;6.43;;;15.60;99.90;;;;;;4996239;28;20475;-65
2023/07/30 03:42:24;;;;;;;25.63;7.50;;;15.40;99.90;;;;;;5013226;28;20156;-64
2023/07/30 03:44:50;;;;;;;28.75;7.45;;;15.60;99.90;;;;;;5015610;28;20044;-63
2023/07/30 03:47:15;;;;;;;24.33;7.63;;;15.20;99.90;;;;;;5013156;28;20037;-64
2023/07/30 03:49:41;;;;;;;25.65;7.28;;;15.20;99.90;;;;;;5012190;28;20042;-64
2023/07/30 03:52:07;;;;;;;28.13;7.45;;;15.10;99.90;;;;;;4996080;28;20119;-64
2023/07/30 03:54:33;;;;;;;27.33;7.35;;;15.10;99.90;;;;;;5013439;28;20500;-64
2023/07/30 03:56:58;;;;;;;25.77;6.97;;;15.10;99.90;;;;;;5011918;28;20194;-63
2023/07/30 03:59:24;;;;;;;32.60;7.32;;;15.30;99.90;;;;;;5001402;28;20539;-64
2023/07/30 04:01:50;;;;;;;30.50;6.90;;;15.20;99.90;;;;;;4997538;28;20052;-64
2023/07/30 04:04:16;;;;;;;32.78;7.80;;;15.00;99.90;;;;;;5015583;28;20369;-64
2023/07/30 04:06:41;;;;;;;29.90;6.68;;;15.20;99.90;;;;;;5012731;28;20496;-64
2023/07/30 04:09:08;;;;;;;27.63;6.50;;;15.10;99.90;;;;;;5012656;28;20341;-65
2023/07/30 04:11:33;;;;;;;26.73;6.82;;;15.10;99.90;;;;;;5012919;28;20282;-64
2023/07/30 04:13:59;;;;;;;31.50;6.88;;;14.90;99.90;;;;;;5011731;28;20091;-65
2023/07/30 04:16:25;;;;;;;34.25;6.85;;;14.90;99.90;;;;;;4996399;28;20206;-64
2023/07/30 04:18:50;;;;;;;30.42;7.22;;;15.00;99.90;;;;;;4997310;28;20508;-65
2023/07/30 04:21:16;;;;;;;29.95;7.00;;;15.10;99.90;;;;;;5011625;28;20037;-64
2023/07/30 04:23:42;;;;;;;40.08;6.97;;;15.10;99.90;;;;;;5016349;28;20463;-64
2023/07/30 04:26:07;;;;;;;23.17;5.70;;;15.10;99.90;;;;;;5011945;28;20049;-63
2023/07/30 04:28:33;;;;;;;26.60;6.88;;;14.80;99.90;;;;;;5013081;28;20236;-63
2023/07/30 04:30:59;;;;;;;25.30;6.45;;;14.90;99.90;;;;;;4997477;28;20045;-63
2023/07/30 04:33:26;;;;;;;27.85;6.68;;;15.10;99.90;;;;;;5012920;28;20056;-63
2023/07/30 04:35:52;;;;;;;26.20;5.95;;;15.00;99.90;;;;;;5011453;28;20271;-63
2023/07/30 04:38:17;;;;;;;26.10;6.47;;;15.10;99.90;;;;;;5011839;28;20112;-64
2023/07/30 04:40:43;;;;;;;29.38;6.22;;;15.10;99.90;;;;;;5009389;28;20040;-64
2023/07/30 04:43:09;;;;;;;25.80;6.07;;;15.20;99.90;;;;;;5013463;28;20368;-64
2023/07/30 04:45:34;;;;;;;26.40;6.30;;;15.10;99.90;;;;;;5011819;28;20045;-65
2023/07/30 04:48:01;;;;;;;26.77;6.13;;;15.10;99.90;;;;;;5013733;28;20491;-65
2023/07/30 04:50:27;;;;;;;29.77;6.28;;;15.20;99.90;;;;;;5012455;28;20045;-63
2023/07/30 04:52:52;;;;;;;21.23;5.28;;;14.90;99.90;;;;;;5011306;28;20451;-64
2023/07/30 04:55:18;;;;;;;19.98;5.53;;;15.20;99.90;;;;;;5013305;28;20045;-64
2023/07/30 04:57:44;;;;;;;26.25;6.47;;;15.30;99.90;;;;;;5013196;28;20508;-64
2023/07/30 05:00:10;;;;;;;25.05;5.43;;;15.10;99.90;;;;;;5012053;28;20041;-64
2023/07/30 05:02:36;;;;;;;24.88;5.78;;;15.00;99.90;;;;;;5017860;28;20459;-63
2023/07/30 05:05:01;;;;;;;26.80;6.10;;;15.20;99.90;;;;;;5012728;28;20049;-65
2023/07/30 05:07:27;;;;;;;22.98;5.65;;;15.10;99.90;;;;;;5012227;28;20045;-63
2023/07/30 05:09:53;;;;;;;23.75;5.28;;;15.20;99.90;;;;;;5013320;28;20042;-63
2023/07/30 05:12:18;;;;;;;26.02;5.53;;;15.30;99.90;;;;;;5010714;28;20205;-64
2023/07/30 05:14:44;;;;;;;27.23;5.53;;;15.50;99.90;;;;;;5013704;28;20049;-63
2023/07/30 05:17:10;;;;;;;22.52;5.10;;;15.70;99.90;;;;;;5018934;28;20041;-64
2023/07/30 05:19:35;;;;;;;20.13;4.60;;;15.90;99.90;;;;;;5016767;28;20411;-64
2023/07/30 05:22:01;;;;;;;22.92;4.90;;;16.30;99.90;;;;;;5014801;28;20091;-64
2023/07/30 05:24:27;;;;;;;18.00;3.95;;;16.20;99.90;;;;;;5016559;28;20041;-64
2023/07/30 05:26:53;;;;;;;21.80;4.35;;;16.40;99.90;;;;;;4998779;28;20064;-63
2023/07/30 05:29:19;;;;;;;18.98;3.83;;;16.30;99.90;;;;;;5000670;28;20040;-64
2023/07/30 05:31:44;;;;;;;24.17;4.03;;;16.30;99.90;;;;;;5016940;28;20075;-63
2023/07/30 05:34:10;;;;;;;20.67;4.22;;;16.50;99.90;;;;;;4998987;28;20365;-63
2023/07/30 05:36:36;;;;;;;23.33;4.18;;;16.50;99.90;;;;;;5020296;28;20075;-63
2023/07/30 05:39:01;;;;;;;19.27;4.07;;;16.40;99.90;;;;;;5015919;28;20069;-63
2023/07/30 05:41:27;;;;;;;22.15;4.07;;;16.50;99.90;;;;;;5015351;28;20100;-63
2023/07/30 05:43:53;;;;;;;20.40;3.53;;;16.50;99.90;;;;;;5015347;28;20049;-64
2023/07/30 05:46:18;;;;;;;16.40;3.35;;;16.80;99.90;;;;;;5015316;28;20617;-65
2023/07/30 05:48:44;;;;;;;18.38;3.17;;;16.70;99.90;;;;;;4997458;28;20087;-64
2023/07/30 05:51:10;;;;;;;13.50;2.80;;;16.70;99.90;;;;;;5014183;28;20546;-63
2023/07/30 05:53:36;;;;;;;17.73;3.58;;;16.60;99.90;;;;;;5013734;28;20120;-63
2023/07/30 05:56:01;;;;;;;17.40;3.10;;;16.60;99.90;;;;;;4997974;28;20475;-64
2023/07/30 05:58:27;;;;;;;15.85;2.97;;;16.70;99.90;;;;;;5013967;28;20292;-64
2023/07/30 06:00:53;;;;;;;15.50;2.92;;;16.80;99.90;;;;;;5014897;28;20042;-64
2023/07/30 06:03:19;;;;;;;14.70;2.88;;;16.80;99.90;;;;;;5016748;28;20103;-64
2023/07/30 06:05:44;;;;;;;17.80;3.22;;;16.90;99.90;;;;;;5014551;28;20500;-64
2023/07/30 06:08:10;;;;;;;17.35;2.90;;;16.90;99.90;;;;;;4998188;28;20029;-64
2023/07/30 06:10:36;;;;;;;13.70;2.67;;;17.00;99.90;;;;;;5014662;28;20623;-64
2023/07/30 06:13:03;;;;;;;15.60;2.88;;;17.00;99.90;;;;;;5015580;28;20111;-64
2023/07/30 06:15:30;;;;;;;16.80;2.88;;;17.00;99.90;;;;;;5015844;28;20076;-63
2023/07/30 06:17:56;;;;;;;13.20;2.15;;;17.10;99.90;;;;;;5015783;28;20033;-63
2023/07/30 06:20:21;;;;;;;17.58;2.20;;;17.20;99.90;;;;;;4998564;28;20112;-63
2023/07/30 06:22:47;;;;;;;10.35;1.90;;;17.20;99.90;;;;;;5014198;28;20120;-64
2023/07/30 06:25:13;;;;;;;10.63;1.90;;;17.30;99.90;;;;;;5014884;28;20482;-63
2023/07/30 06:27:38;;;;;;;14.95;2.00;;;17.20;99.90;;;;;;5013457;28;20068;-63
2023/07/30 06:30:05;;;;;;;14.50;2.10;;;17.40;99.90;;;;;;5013604;28;20046;-64
2023/07/30 06:32:30;;;;;;;13.20;2.05;;;17.40;99.90;;;;;;5014049;28;20197;-63
2023/07/30 06:34:56;;;;;;;11.32;1.83;;;17.40;99.90;;;;;;5015267;28;20345;-63
2023/07/30 06:37:22;;;;;;;10.55;2.15;;;17.50;99.90;;;;;;5015812;28;20521;-64
2023/07/30 06:39:47;;;;;;;9.82;1.73;;;17.40;99.90;;;;;;5014308;28;20083;-63
2023/07/30 06:42:13;;;;;;;12.30;2.55;;;17.50;99.90;;;;;;5013637;28;20050;-64
2023/07/30 06:44:39;;;;;;;15.27;1.75;;;17.30;99.90;;;;;;5012812;28;20103;-62
2023/07/30 06:47:05;;;;;;;13.52;2.38;;;17.40;99.90;;;;;;5016141;28;20484;-63
2023/07/30 06:49:33;;;;;;;15.73;2.40;;;17.30;99.90;;;;;;5013277;28;20041;-64
2023/07/30 06:51:59;;;;;;;10.70;1.95;;;17.30;99.90;;;;;;5012800;28;20047;-63
2023/07/30 06:54:25;;;;;;;16.58;2.53;;;17.30;99.90;;;;;;4997002;28;20037;-63
2023/07/30 06:56:51;;;;;;;15.35;2.65;;;17.30;99.90;;;;;;5012900;28;20091;-64
2023/07/30 06:59:16;;;;;;;15.57;2.28;;;17.30;99.90;;;;;;5020405;28;20033;-63
2023/07/30 07:01:42;;;;;;;16.60;2.25;;;17.30;99.90;;;;;;4996130;28;20659;-64
2023/07/30 07:04:08;;;;;;;14.15;2.22;;;17.30;99.90;;;;;;5014410;28;20041;-64
2023/07/30 07:06:35;;;;;;;12.90;2.08;;;17.50;99.90;;;;;;5013034;28;20084;-64
2023/07/30 07:09:00;;;;;;;12.00;2.58;;;17.50;99.90;;;;;;4996488;28;20037;-64
2023/07/30 07:11:26;;;;;;;13.25;2.38;;;17.60;99.90;;;;;;5013879;28;20422;-64
2023/07/30 07:13:52;;;;;;;12.60;1.98;;;17.50;99.90;;;;;;4996035;28;20175;-64
2023/07/30 07:16:18;;;;;;;12.77;2.15;;;17.60;99.90;;;;;;4999272;28;20487;-63
2023/07/30 07:18:44;;;;;;;14.95;2.40;;;17.70;99.90;;;;;;5012151;28;20483;-64
2023/07/30 07:21:10;;;;;;;15.27;2.15;;;17.80;99.90;;;;;;5016291;28;20048;-64
2023/07/30 07:23:39;;;;;;;14.52;1.95;;;17.80;99.90;;;;;;5016252;28;20048;-64
2023/07/30 07:26:05;;;;;;;16.50;2.40;;;17.80;99.90;;;;;;4996989;28;20057;-64
2023/07/30 07:28:30;;;;;;;10.82;1.98;;;17.80;99.90;;;;;;5012779;28;20179;-64
2023/07/30 07:30:56;;;;;;;12.85;2.42;;;17.80;99.90;;;;;;4996226;28;20556;-64
2023/07/30 07:33:22;;;;;;;12.93;2.05;;;17.70;99.90;;;;;;5014697;28;20048;-64
2023/07/30 07:35:48;;;;;;;11.57;2.30;;;17.70;99.90;;;;;;5012729;28;20361;-64
2023/07/30 07:38:14;;;;;;;10.40;2.25;;;18.00;99.90;;;;;;5011269;28;20048;-64
2023/07/30 07:40:40;;;;;;;13.10;2.33;;;18.20;99.90;;;;;;5012545;28;20053;-63
2023/07/30 07:43:07;;;;;;;12.13;2.13;;;18.40;99.90;;;;;;5012903;28;20147;-65
2023/07/30 07:45:33;;;;;;;11.85;1.90;;;18.50;99.90;;;;;;5003525;28;20063;-64
2023/07/30 07:47:59;;;;;;;11.68;1.70;;;18.60;99.90;;;;;;4997638;28;20074;-64
2023/07/30 07:50:25;;;;;;;16.40;1.90;;;18.80;99.90;;;;;;5033454;28;20051;-65
2023/07/30 07:52:50;;;;;;;13.52;2.28;;;18.90;99.90;;;;;;5011589;28;20796;-64
2023/07/30 07:55:17;;;;;;;11.60;1.50;;;18.90;99.90;;;;;;4994837;28;20041;-64
2023/07/30 07:57:43;;;;;;;10.98;1.50;;;18.90;99.90;;;;;;5014832;28;20056;-64
2023/07/30 08:00:09;;;;;;;11.98;1.70;;;18.90;99.90;;;;;;4996981;28;20036;-64
2023/07/30 08:02:34;;;;;;;9.68;2.13;;;19.00;99.90;;;;;;5027351;28;20092;-62
2023/07/30 08:05:00;;;;;;;11.10;1.60;;;19.00;99.90;;;;;;5019212;28;20219;-66
2023/07/30 08:07:26;;;;;;;9.48;1.55;;;19.00;99.90;;;;;;4998288;28;20495;-64
2023/07/30 08:09:52;;;;;;;9.50;1.35;;;19.10;99.90;;;;;;5017810;28;20041;-66
2023/07/30 08:12:19;;;;;;;10.77;1.58;;;19.10;99.90;;;;;;5012382;28;20072;-64
2023/07/30 08:14:45;;;;;;;10.57;1.52;;;19.30;99.90;;;;;;5014812;28;20580;-65
2023/07/30 08:17:11;;;;;;;13.18;1.80;;;19.40;99.90;;;;;;5012792;28;20041;-65
2023/07/30 08:19:36;;;;;;;9.20;1.65;;;19.70;99.90;;;;;;5012835;28;20129;-64
2023/07/30 08:22:02;;;;;;;10.48;1.25;;;20.10;99.90;;;;;;5002981;28;20107;-64
2023/07/30 08:24:28;;;;;;;7.10;1.00;;;20.70;99.90;;;;;;4997653;28;20124;-66
2023/07/30 08:26:54;;;;;;;12.60;1.02;;;21.00;99.90;;;;;;5016442;28;20041;-64
2023/07/30 08:29:20;;;;;;;8.27;0.90;;;21.00;91.40;;;;;;5015332;28;20208;-64
2023/07/30 08:31:46;;;;;;;8.07;0.80;;;21.20;77.00;;;;;;4995228;28;20045;-63
2023/07/30 08:34:12;;;;;;;8.15;1.10;;;21.20;4.50;;;;;;5013342;28;20041;-64
2023/07/30 08:36:37;;;;;;;9.10;0.95;;;21.10;10.70;;;;;;5012616;28;20137;-64
2023/07/30 08:39:03;;;;;;;8.48;1.20;;;20.90;18.40;;;;;;5011451;28;20305;-64
2023/07/30 08:41:30;;;;;;;8.23;1.05;;;20.70;4.90;;;;;;5012843;28;20041;-64
2023/07/30 08:43:55;;;;;;;9.95;1.42;;;20.60;4.00;;;;;;4996914;28;20033;-63
2023/07/30 08:46:21;;;;;;;7.63;1.05;;;20.50;1.00;;;;;;5014696;28;20344;-63
2023/07/30 08:48:47;;;;;;;9.60;1.08;;;20.30;1.00;;;;;;4996430;28;20416;-63
2023/07/30 08:51:14;;;;;;;5.75;0.75;;;20.30;1.00;;;;;;5016673;28;20081;-64
2023/07/30 08:53:40;;;;;;;9.35;1.08;;;20.20;1.00;;;;;;5000150;28;20081;-63
2023/07/30 08:56:07;;;;;;;6.47;0.80;;;20.20;1.00;;;;;;5017942;28;20099;-63
2023/07/30 08:58:36;;;;;;;9.15;0.70;;;20.30;1.80;;;;;;5014830;28;20543;-64
2023/07/30 09:01:11;;;;;;;8.13;1.05;;;20.20;1.40;;;;;;5015706;28;20438;-64
2023/07/30 09:03:39;;;;;;;9.18;0.90;;;20.10;7.20;;;;;;5004663;28;20275;-64
2023/07/30 09:06:06;;;;;;;6.65;0.70;;;19.90;10.30;;;;;;5002429;28;20041;-64
2023/07/30 09:08:32;;;;;;;7.97;0.98;;;19.70;13.50;;;;;;5015772;28;20438;-65
2023/07/30 09:11:10;;;;;;;8.25;0.82;;;19.40;14.80;;;;;;5016621;28;20569;-63
2023/07/30 09:13:41;;;;;;;5.88;0.77;;;19.30;14.10;;;;;;5017027;28;20385;-63
2023/07/30 09:16:11;;;;;;;10.57;1.17;;;19.40;17.30;;;;;;5018200;28;20049;-64
2023/07/30 09:18:45;;;;;;;8.02;1.00;;;19.40;25.20;;;;;;4999593;28;20383;-64
2023/07/30 09:21:14;;;;;;;7.55;0.80;;;19.50;18.00;;;;;;5005328;28;20080;-63
2023/07/30 09:23:45;;;;;;;5.25;0.82;;;19.40;13.60;;;;;;5029103;28;20076;-63
2023/07/30 09:26:12;;;;;;;9.70;0.95;;;19.40;11.70;;;;;;5029220;28;20041;-63
2023/07/30 09:28:39;;;;;;;8.43;1.00;;;19.50;15.30;;;;;;5026271;28;20037;-62
2023/07/30 09:31:06;;;;;;;11.25;1.30;;;19.50;18.60;;;;;;5027445;28;20037;-64
2023/07/30 09:33:33;;;;;;;7.72;0.80;;;19.60;17.70;;;;;;5026184;28;20649;-63
2023/07/30 09:36:02;;;;;;;6.35;0.70;;;19.70;19.60;;;;;;5003460;28;20041;-65
2023/07/30 09:38:32;;;;;;;6.68;0.60;;;19.80;4.30;;;;;;5017468;28;20102;-64
2023/07/30 09:41:02;;;;;;;8.27;0.98;;;19.70;12.50;;;;;;5030972;28;20491;-64
2023/07/30 09:43:35;;;;;;;6.75;0.68;;;19.50;17.40;;;;;;5018914;28;20045;-64
2023/07/30 09:46:02;;;;;;;8.55;0.93;;;19.30;21.40;;;;;;5017615;28;20045;-64
2023/07/30 09:48:32;;;;;;;8.13;0.88;;;19.10;31.20;;;;;;5018249;28;20147;-64
2023/07/30 09:51:03;;;;;;;6.20;0.63;;;19.00;37.50;;;;;;5017339;28;20699;-64
2023/07/30 09:53:34;;;;;;;13.10;1.08;;;18.90;53.10;;;;;;5019633;28;20048;-65
2023/07/30 09:56:02;;;;;;;5.68;0.60;;;18.70;65.90;;;;;;5016895;28;20837;-65
2023/07/30 09:58:28;;;;;;;8.00;0.95;;;18.70;71.90;;;;;;5015648;28;20045;-65
2023/07/30 10:00:58;;;;;;;7.20;0.80;;;18.60;78.50;;;;;;4998768;28;20072;-64
2023/07/30 10:03:23;;;;;;;4.55;0.55;;;18.60;65.70;;;;;;5034600;28;20059;-64
2023/07/30 10:05:51;;;;;;;7.53;0.57;;;18.60;53.90;;;;;;5034217;28;20041;-65
2023/07/30 10:08:22;;;;;;;4.53;0.50;;;18.60;41.40;;;;;;5009871;28;20106;-65
2023/07/30 10:10:49;;;;;;;3.90;0.60;;;18.60;42.70;;;;;;5016056;28;20562;-63
2023/07/30 10:13:16;;;;;;;3.80;0.50;;;18.80;47.00;;;;;;5013072;28;20101;-64
2023/07/30 10:15:44;;;;;;;4.95;0.40;;;19.00;47.50;;;;;;5013852;28;20124;-63
2023/07/30 10:18:09;;;;;;;4.45;0.60;;;19.00;39.60;;;;;;5014781;28;20204;-64
2023/07/30 10:20:35;;;;;;;5.40;0.50;;;19.10;48.00;;;;;;5013341;28;20036;-63
2023/07/30 10:23:03;;;;;;;5.35;0.60;;;19.30;56.60;;;;;;5013123;28;20101;-63
2023/07/30 10:25:42;;;;;;;10.00;0.70;;;19.30;53.40;;;;;;4996160;28;20431;-63
2023/07/30 10:28:07;;;;;;;4.13;0.70;;;19.30;53.40;;;;;;5014885;28;20045;-65
2023/07/30 10:30:33;;;;;;;4.72;0.43;;;19.40;47.00;;;;;;5014077;28;20033;-64
2023/07/30 10:33:04;;;;;;;5.97;0.47;;;19.40;53.40;;;;;;5017198;28;20203;-64
2023/07/30 10:35:39;;;;;;;5.15;0.93;;;19.60;49.80;;;;;;5013961;28;20334;-64
2023/07/30 10:38:27;;;;;;;7.60;0.98;;;19.60;80.60;;;;;;5015779;28;20351;-64
2023/07/30 10:41:12;;;;;;;5.97;0.70;;;19.80;96.10;;;;;;5014379;28;20037;-64
2023/07/30 10:43:49;;;;;;;4.25;0.50;;;20.30;91.50;;;;;;5016215;28;20052;-63
2023/07/30 10:46:17;;;;;;;7.28;0.80;;;20.60;86.10;;;;;;5013409;28;20525;-63
2023/07/30 10:48:46;;;;;;;5.03;0.50;;;21.00;74.90;;;;;;5014370;28;20033;-64
2023/07/30 10:51:16;;;;;;;4.28;0.50;;;21.30;58.10;;;;;;5014921;28;20041;-63
2023/07/30 10:53:43;;;;;;;5.13;0.75;;;21.70;42.80;;;;;;4997317;28;20049;-64
2023/07/30 10:56:10;;;;;;;3.78;0.43;;;21.80;30.30;;;;;;5022215;28;20052;-64
2023/07/30 10:58:36;;;;;;;4.57;0.50;;;21.50;29.10;;;;;;5029924;28;20061;-65
2023/07/30 11:01:04;;;;;;;4.80;0.60;;;21.00;30.60;;;;;;5014988;28;20036;-63
2023/07/30 11:03:31;;;;;;;3.70;0.50;;;20.60;33.80;;;;;;5015769;28;20045;-63
2023/07/30 11:05:57;;;;;;;3.38;0.40;;;20.10;51.20;;;;;;5021171;28;20322;-63
2023/07/30 11:08:40;;;;;;;3.25;0.47;;;19.70;67.20;;;;;;5012239;28;20115;-63
2023/07/30 11:11:07;;;;;;;4.05;0.75;;;19.40;92.50;;;;;;5014509;28;20044;-64
2023/07/30 11:13:43;;;;;;;5.18;0.50;;;19.30;99.20;;;;;;5015159;28;20045;-63
2023/07/30 11:16:10;;;;;;;4.65;0.57;;;19.20;99.90;;;;;;5013720;28;20136;-62
2023/07/30 11:18:38;;;;;;;4.95;0.70;;;19.70;99.90;;;;;;5029927;28;20072;-63
2023/07/30 11:21:16;;;;;;;6.32;0.73;;;20.40;99.90;;;;;;5013965;28;20417;-63
2023/07/30 11:23:43;;;;;;;6.68;0.65;;;20.90;99.90;;;;;;5030072;28;20673;-65
2023/07/30 11:26:13;;;;;;;3.97;0.70;;;21.10;99.90;;;;;;5015670;28;20041;-62
2023/07/30 11:28:40;;;;;;;5.72;0.65;;;21.60;99.90;;;;;;5013855;28;20041;-63
2023/07/30 11:31:11;;;;;;;5.00;0.70;;;22.00;92.30;;;;;;5014041;28;20803;-64
2023/07/30 11:33:42;;;;;;;4.15;0.50;;;22.20;56.00;;;;;;5011417;28;20348;-63
2023/07/30 11:36:18;;;;;;;6.70;0.60;;;22.50;51.50;;;;;;5012897;28;20111;-63
2023/07/30 11:38:45;;;;;;;8.00;0.77;;;22.40;51.00;;;;;;5011986;28;20052;-63
2023/07/30 11:41:12;;;;;;;7.75;0.75;;;22.90;32.30;;;;;;5013134;28;20894;-64
2023/07/30 11:43:43;;;;;;;5.20;0.60;;;22.80;33.60;;;;;;5013656;28;20049;-63
2023/07/30 11:46:16;;;;;;;5.63;0.82;;;23.10;10.20;;;;;;5012224;28;20106;-64
2023/07/30 11:48:47;;;;;;;5.55;0.52;;;22.90;1.00;;;;;;5014985;28;20033;-64
2023/07/30 11:51:26;;;;;;;5.53;0.70;;;23.10;1.90;;;;;;5013829;28;20188;-63
2023/07/30 11:53:58;;;;;;;6.97;0.75;;;23.20;1.00;;;;;;5014823;28;20083;-63
2023/07/30 11:56:28;;;;;;;5.22;0.85;;;23.20;1.00;;;;;;5002356;28;20646;-63
2023/07/30 11:59:00;;;;;;;6.53;0.80;;;23.50;1.00;;;;;;5015002;28;20053;-64
2023/07/30 12:01:29;;;;;;;7.05;0.70;;;23.30;1.00;;;;;;5014598;28;20084;-63
2023/07/30 12:03:59;;;;;;;6.45;0.77;;;23.40;1.00;;;;;;4999733;28;20045;-63
2023/07/30 12:06:39;;;;;;;6.82;0.70;;;23.30;1.00;;;;;;5008094;28;20573;-62
2023/07/30 12:09:13;;;;;;;6.55;0.50;;;23.10;1.00;;;;;;5006799;28;20795;-63
2023/07/30 12:11:59;;;;;;;7.20;0.63;;;23.30;1.00;;;;;;5018274;28;20472;-64
2023/07/30 12:14:30;;;;;;;4.50;0.57;;;23.50;1.00;;;;;;5011459;28;20204;-62
2023/07/30 12:16:56;;;;;;;4.63;0.57;;;23.80;1.00;;;;;;5031538;28;20076;-63
2023/07/30 12:19:22;;;;;;;6.07;0.60;;;24.10;1.00;;;;;;5025352;28;20045;-63
2023/07/30 12:21:47;;;;;;;3.88;0.50;;;24.20;1.00;;;;;;5011938;28;20041;-64
2023/07/30 12:24:13;;;;;;;4.55;0.47;;;23.90;1.00;;;;;;5019910;28;20071;-64
2023/07/30 12:26:39;;;;;;;7.38;0.70;;;23.30;1.00;;;;;;5018728;28;20280;-63
2023/07/30 12:29:05;;;;;;;7.38;0.65;;;22.80;1.00;;;;;;5015936;28;20607;-63
2023/07/30 12:31:31;;;;;;;3.05;0.35;;;22.40;1.00;;;;;;5015754;28;20049;-63
2023/07/30 12:33:57;;;;;;;5.53;0.50;;;21.90;1.00;;;;;;5016576;28;20042;-64
2023/07/30 12:36:23;;;;;;;5.82;0.63;;;21.90;1.00;;;;;;5016693;28;20041;-63
2023/07/30 12:38:49;;;;;;;4.30;0.60;;;22.20;1.00;;;;;;5016526;28;20038;-65